Dulwich, United Kingdom
Current Conditions -  °F | °C
As of 3:20 AM on Saturday 29 Nov 2014 (Local Time) from EGLC Reporting Station
Clear Clear  
Wind Chill: 52°   Ceiling: Unl
Heat Index: 52°   Visibility: 5mi
Dew Point: 48°   Wind: 13mph
Humidity: 88%   Direction: 80°E
Pressure: 29.77"   Gusts: NA
Location:  51.43°N, 0.09°W
Report Text: EGLC 290320Z AUTO 08011KT 8000 NCD 11/09 Q1008
Loading
Personal Weather Stations






























Interactive Weather Map New forecast layout! Learn more

10-Day Weather Forecast

Advertisements
Track Severe Weather on mobile